sensor_id;sensor_type;location;lat;lon;timestamp;P1;durP1;ratioP1;P2;durP2;ratioP2
10661;SDS011;5379;51.034;7.006;2023-04-25T04:31:46;2.93;;;2.13;;
10661;SDS011;5379;51.034;7.006;2023-04-25T04:34:13;2.90;;;2.20;;
10661;SDS011;5379;51.034;7.006;2023-04-25T04:36:41;3.57;;;2.27;;
10661;SDS011;5379;51.034;7.006;2023-04-25T04:39:10;3.97;;;2.57;;
10661;SDS011;5379;51.034;7.006;2023-04-25T04:41:37;3.27;;;2.40;;
10661;SDS011;5379;51.034;7.006;2023-04-25T04:44:04;2.37;;;2.17;;
10661;SDS011;5379;51.034;7.006;2023-04-25T04:46:31;3.20;;;2.30;;
10661;SDS011;5379;51.034;7.006;2023-04-25T04:49:04;6.63;;;3.10;;
10661;SDS011;5379;51.034;7.006;2023-04-25T04:51:31;6.10;;;2.50;;
10661;SDS011;5379;51.034;7.006;2023-04-25T04:53:58;2.70;;;2.50;;
10661;SDS011;5379;51.034;7.006;2023-04-25T04:56:27;2.77;;;2.20;;
10661;SDS011;5379;51.034;7.006;2023-04-25T04:58:55;2.97;;;2.40;;
10661;SDS011;5379;51.034;7.006;2023-04-25T05:01:23;3.07;;;2.67;;
10661;SDS011;5379;51.034;7.006;2023-04-25T05:03:50;6.17;;;2.50;;
10661;SDS011;5379;51.034;7.006;2023-04-25T05:06:18;6.53;;;2.83;;
10661;SDS011;5379;51.034;7.006;2023-04-25T05:08:45;5.27;;;3.20;;
10661;SDS011;5379;51.034;7.006;2023-04-25T05:11:12;2.73;;;2.50;;
10661;SDS011;5379;51.034;7.006;2023-04-25T05:13:39;2.40;;;2.20;;
10661;SDS011;5379;51.034;7.006;2023-04-25T05:16:06;4.60;;;2.20;;
10661;SDS011;5379;51.034;7.006;2023-04-25T05:18:33;4.70;;;2.60;;
10661;SDS011;5379;51.034;7.006;2023-04-25T05:21:00;3.90;;;2.30;;
10661;SDS011;5379;51.034;7.006;2023-04-25T05:23:28;2.80;;;2.30;;
10661;SDS011;5379;51.034;7.006;2023-04-25T05:25:55;2.80;;;2.40;;
10661;SDS011;5379;51.034;7.006;2023-04-25T05:28:22;3.10;;;2.17;;
10661;SDS011;5379;51.034;7.006;2023-04-25T05:30:49;10.83;;;2.90;;
10661;SDS011;5379;51.034;7.006;2023-04-25T05:33:16;3.77;;;2.20;;
10661;SDS011;5379;51.034;7.006;2023-04-25T05:35:43;8.17;;;2.27;;
10661;SDS011;5379;51.034;7.006;2023-04-25T05:38:11;4.17;;;2.67;;
10661;SDS011;5379;51.034;7.006;2023-04-25T05:40:39;5.17;;;2.13;;
10661;SDS011;5379;51.034;7.006;2023-04-25T05:43:06;2.20;;;2.00;;
10661;SDS011;5379;51.034;7.006;2023-04-25T05:45:33;3.07;;;2.10;;
10661;SDS011;5379;51.034;7.006;2023-04-25T05:48:00;3.33;;;2.17;;
10661;SDS011;5379;51.034;7.006;2023-04-25T05:50:28;3.17;;;2.70;;
10661;SDS011;5379;51.034;7.006;2023-04-25T05:52:55;4.03;;;2.33;;
10661;SDS011;5379;51.034;7.006;2023-04-25T05:55:22;1.73;;;1.60;;
10661;SDS011;5379;51.034;7.006;2023-04-25T05:57:51;1.67;;;1.57;;
10661;SDS011;5379;51.034;7.006;2023-04-25T06:00:18;1.73;;;1.63;;
10661;SDS011;5379;51.034;7.006;2023-04-25T06:02:47;1.23;;;1.13;;
10661;SDS011;5379;51.034;7.006;2023-04-25T06:05:14;1.73;;;1.60;;
10661;SDS011;5379;51.034;7.006;2023-04-25T06:07:41;1.47;;;1.40;;
10661;SDS011;5379;51.034;7.006;2023-04-25T06:10:08;2.50;;;1.30;;
10661;SDS011;5379;51.034;7.006;2023-04-25T06:12:35;1.37;;;1.27;;
10661;SDS011;5379;51.034;7.006;2023-04-25T06:15:05;1.40;;;1.30;;
10661;SDS011;5379;51.034;7.006;2023-04-25T06:17:33;3.33;;;1.70;;
10661;SDS011;5379;51.034;7.006;2023-04-25T06:20:00;1.47;;;1.30;;
10661;SDS011;5379;51.034;7.006;2023-04-25T06:22:28;1.17;;;1.17;;
10661;SDS011;5379;51.034;7.006;2023-04-25T06:24:55;4.27;;;1.50;;
10661;SDS011;5379;51.034;7.006;2023-04-25T06:27:24;1.17;;;1.03;;
10661;SDS011;5379;51.034;7.006;2023-04-25T06:29:51;1.37;;;1.27;;
10661;SDS011;5379;51.034;7.006;2023-04-25T06:32:19;0.70;;;0.70;;
10661;SDS011;5379;51.034;7.006;2023-04-25T06:34:46;2.43;;;1.33;;
10661;SDS011;5379;51.034;7.006;2023-04-25T06:37:14;1.70;;;1.13;;
10661;SDS011;5379;51.034;7.006;2023-04-25T06:39:41;1.43;;;0.97;;
10661;SDS011;5379;51.034;7.006;2023-04-25T06:42:08;0.90;;;0.90;;
10661;SDS011;5379;51.034;7.006;2023-04-25T06:44:35;0.93;;;0.93;;
10661;SDS011;5379;51.034;7.006;2023-04-25T06:47:01;0.87;;;0.87;;
10661;SDS011;5379;51.034;7.006;2023-04-25T06:49:30;0.90;;;0.90;;
10661;SDS011;5379;51.034;7.006;2023-04-25T06:51:57;0.80;;;0.80;;
10661;SDS011;5379;51.034;7.006;2023-04-25T06:54:24;0.90;;;0.90;;
10661;SDS011;5379;51.034;7.006;2023-04-25T06:56:52;0.70;;;0.70;;
10661;SDS011;5379;51.034;7.006;2023-04-25T06:59:19;1.07;;;0.80;;
10661;SDS011;5379;51.034;7.006;2023-04-25T07:01:46;2.77;;;1.57;;
10661;SDS011;5379;51.034;7.006;2023-04-25T07:04:13;0.97;;;0.97;;
10661;SDS011;5379;51.034;7.006;2023-04-25T07:06:41;0.83;;;0.83;;
10661;SDS011;5379;51.034;7.006;2023-04-25T07:09:08;0.50;;;0.50;;
10661;SDS011;5379;51.034;7.006;2023-04-25T07:11:35;0.90;;;0.90;;
10661;SDS011;5379;51.034;7.006;2023-04-25T07:14:03;1.00;;;1.00;;
10661;SDS011;5379;51.034;7.006;2023-04-25T07:16:30;0.90;;;0.90;;
10661;SDS011;5379;51.034;7.006;2023-04-25T07:18:57;1.80;;;1.20;;
10661;SDS011;5379;51.034;7.006;2023-04-25T07:21:25;1.20;;;1.20;;
10661;SDS011;5379;51.034;7.006;2023-04-25T07:23:53;0.83;;;0.83;;
10661;SDS011;5379;51.034;7.006;2023-04-25T07:26:20;2.70;;;1.70;;
10661;SDS011;5379;51.034;7.006;2023-04-25T07:28:47;2.23;;;1.57;;
10661;SDS011;5379;51.034;7.006;2023-04-25T07:31:15;1.20;;;1.00;;
10661;SDS011;5379;51.034;7.006;2023-04-25T07:33:43;0.93;;;0.93;;
10661;SDS011;5379;51.034;7.006;2023-04-25T07:36:11;0.70;;;0.70;;
10661;SDS011;5379;51.034;7.006;2023-04-25T07:38:38;1.30;;;1.23;;
10661;SDS011;5379;51.034;7.006;2023-04-25T07:41:06;1.73;;;1.30;;
10661;SDS011;5379;51.034;7.006;2023-04-25T07:43:33;1.00;;;0.90;;
10661;SDS011;5379;51.034;7.006;2023-04-25T07:46:00;1.00;;;1.00;;
10661;SDS011;5379;51.034;7.006;2023-04-25T07:48:27;1.00;;;1.00;;
10661;SDS011;5379;51.034;7.006;2023-04-25T07:50:54;1.13;;;1.13;;
10661;SDS011;5379;51.034;7.006;2023-04-25T07:53:21;2.27;;;1.70;;
10661;SDS011;5379;51.034;7.006;2023-04-25T07:55:48;4.30;;;1.80;;
10661;SDS011;5379;51.034;7.006;2023-04-25T07:58:17;2.50;;;1.80;;
10661;SDS011;5379;51.034;7.006;2023-04-25T08:00:46;2.60;;;1.30;;
10661;SDS011;5379;51.034;7.006;2023-04-25T08:03:13;1.17;;;0.93;;
10661;SDS011;5379;51.034;7.006;2023-04-25T08:05:40;0.90;;;0.90;;
10661;SDS011;5379;51.034;7.006;2023-04-25T08:08:07;2.13;;;1.50;;
10661;SDS011;5379;51.034;7.006;2023-04-25T08:10:34;6.13;;;1.37;;
10661;SDS011;5379;51.034;7.006;2023-04-25T08:13:01;3.97;;;2.20;;
10661;SDS011;5379;51.034;7.006;2023-04-25T08:15:30;2.73;;;1.80;;
10661;SDS011;5379;51.034;7.006;2023-04-25T08:17:56;1.57;;;1.47;;
10661;SDS011;5379;51.034;7.006;2023-04-25T08:20:24;2.13;;;1.60;;
10661;SDS011;5379;51.034;7.006;2023-04-25T08:22:51;1.57;;;1.47;;
10661;SDS011;5379;51.034;7.006;2023-04-25T08:25:18;3.07;;;1.40;;
10661;SDS011;5379;51.034;7.006;2023-04-25T08:27:45;1.53;;;1.43;;
10661;SDS011;5379;51.034;7.006;2023-04-25T08:30:12;1.23;;;1.13;;
10661;SDS011;5379;51.034;7.006;2023-04-25T08:32:41;1.60;;;1.50;;
10661;SDS011;5379;51.034;7.006;2023-04-25T08:35:08;2.03;;;1.80;;
10661;SDS011;5379;51.034;7.006;2023-04-25T08:37:35;7.57;;;1.73;;
10661;SDS011;5379;51.034;7.006;2023-04-25T08:40:03;4.67;;;2.00;;
10661;SDS011;5379;51.034;7.006;2023-04-25T08:42:33;1.50;;;1.40;;
10661;SDS011;5379;51.034;7.006;2023-04-25T08:45:01;1.70;;;1.40;;
10661;SDS011;5379;51.034;7.006;2023-04-25T08:47:29;1.77;;;1.30;;
10661;SDS011;5379;51.034;7.006;2023-04-25T08:50:01;2.00;;;1.73;;
10661;SDS011;5379;51.034;7.006;2023-04-25T08:52:32;1.00;;;1.00;;
10661;SDS011;5379;51.034;7.006;2023-04-25T08:55:02;1.77;;;1.23;;
10661;SDS011;5379;51.034;7.006;2023-04-25T08:57:31;0.80;;;0.80;;
10661;SDS011;5379;51.034;7.006;2023-04-25T08:59:59;2.67;;;1.77;;
10661;SDS011;5379;51.034;7.006;2023-04-25T09:02:28;1.17;;;1.13;;
10661;SDS011;5379;51.034;7.006;2023-04-25T09:04:56;1.50;;;1.40;;
10661;SDS011;5379;51.034;7.006;2023-04-25T09:07:25;1.17;;;1.00;;
10661;SDS011;5379;51.034;7.006;2023-04-25T09:09:52;2.00;;;1.43;;
10661;SDS011;5379;51.034;7.006;2023-04-25T09:12:19;5.17;;;1.50;;
10661;SDS011;5379;51.034;7.006;2023-04-25T09:15:00;1.27;;;1.17;;
10661;SDS011;5379;51.034;7.006;2023-04-25T09:17:30;1.60;;;0.83;;
10661;SDS011;5379;51.034;7.006;2023-04-25T09:20:04;1.17;;;1.07;;
10661;SDS011;5379;51.034;7.006;2023-04-25T09:22:36;1.00;;;1.00;;
10661;SDS011;5379;51.034;7.006;2023-04-25T09:25:03;1.00;;;0.83;;
10661;SDS011;5379;51.034;7.006;2023-04-25T09:27:34;2.30;;;1.23;;
10661;SDS011;5379;51.034;7.006;2023-04-25T09:30:01;1.53;;;0.97;;
10661;SDS011;5379;51.034;7.006;2023-04-25T09:32:29;3.40;;;1.23;;
10661;SDS011;5379;51.034;7.006;2023-04-25T09:34:57;3.97;;;1.57;;
10661;SDS011;5379;51.034;7.006;2023-04-25T09:37:24;3.27;;;1.57;;
10661;SDS011;5379;51.034;7.006;2023-04-25T09:39:55;2.47;;;1.17;;
10661;SDS011;5379;51.034;7.006;2023-04-25T09:42:24;2.60;;;1.63;;
10661;SDS011;5379;51.034;7.006;2023-04-25T09:44:52;5.40;;;1.33;;
10661;SDS011;5379;51.034;7.006;2023-04-25T09:47:20;0.80;;;0.80;;
10661;SDS011;5379;51.034;7.006;2023-04-25T09:49:49;1.07;;;1.00;;
10661;SDS011;5379;51.034;7.006;2023-04-25T09:52:17;1.77;;;0.73;;
10661;SDS011;5379;51.034;7.006;2023-04-25T09:54:45;2.93;;;1.53;;
10661;SDS011;5379;51.034;7.006;2023-04-25T09:57:15;1.13;;;1.03;;
10661;SDS011;5379;51.034;7.006;2023-04-25T09:59:43;1.27;;;0.90;;
10661;SDS011;5379;51.034;7.006;2023-04-25T10:02:11;17.73;;;1.33;;
10661;SDS011;5379;51.034;7.006;2023-04-25T10:04:39;2.80;;;1.40;;
10661;SDS011;5379;51.034;7.006;2023-04-25T10:07:07;1.27;;;1.03;;
10661;SDS011;5379;51.034;7.006;2023-04-25T10:09:36;1.10;;;0.80;;
10661;SDS011;5379;51.034;7.006;2023-04-25T10:12:04;0.60;;;0.60;;
10661;SDS011;5379;51.034;7.006;2023-04-25T10:14:34;0.90;;;0.63;;
10661;SDS011;5379;51.034;7.006;2023-04-25T10:17:01;1.30;;;1.20;;
10661;SDS011;5379;51.034;7.006;2023-04-25T10:19:28;1.23;;;1.03;;
10661;SDS011;5379;51.034;7.006;2023-04-25T10:21:56;1.03;;;0.80;;
10661;SDS011;5379;51.034;7.006;2023-04-25T10:24:30;0.60;;;0.60;;
10661;SDS011;5379;51.034;7.006;2023-04-25T10:26:57;0.83;;;0.53;;
10661;SDS011;5379;51.034;7.006;2023-04-25T10:29:25;0.70;;;0.70;;
10661;SDS011;5379;51.034;7.006;2023-04-25T10:31:54;0.70;;;0.70;;
10661;SDS011;5379;51.034;7.006;2023-04-25T10:34:23;1.10;;;1.10;;
10661;SDS011;5379;51.034;7.006;2023-04-25T10:37:03;3.00;;;1.47;;
10661;SDS011;5379;51.034;7.006;2023-04-25T10:39:30;1.23;;;0.90;;
10661;SDS011;5379;51.034;7.006;2023-04-25T10:41:59;0.70;;;0.70;;
10661;SDS011;5379;51.034;7.006;2023-04-25T10:44:29;1.03;;;1.00;;
10661;SDS011;5379;51.034;7.006;2023-04-25T10:47:01;1.70;;;1.07;;
10661;SDS011;5379;51.034;7.006;2023-04-25T10:49:33;0.63;;;0.63;;
10661;SDS011;5379;51.034;7.006;2023-04-25T10:52:15;0.40;;;0.40;;
10661;SDS011;5379;51.034;7.006;2023-04-25T10:54:47;0.70;;;0.70;;
10661;SDS011;5379;51.034;7.006;2023-04-25T11:00:15;0.70;;;0.70;;
10661;SDS011;5379;51.034;7.006;2023-04-25T11:02:46;1.17;;;1.07;;
10661;SDS011;5379;51.034;7.006;2023-04-25T11:05:16;0.77;;;0.70;;
10661;SDS011;5379;51.034;7.006;2023-04-25T11:08:01;2.77;;;1.10;;
10661;SDS011;5379;51.034;7.006;2023-04-25T11:10:30;1.33;;;0.70;;
10661;SDS011;5379;51.034;7.006;2023-04-25T11:13:00;1.83;;;0.97;;
10661;SDS011;5379;51.034;7.006;2023-04-25T11:15:27;0.50;;;0.50;;
10661;SDS011;5379;51.034;7.006;2023-04-25T11:17:56;0.80;;;0.80;;
10661;SDS011;5379;51.034;7.006;2023-04-25T11:20:25;0.83;;;0.77;;
10661;SDS011;5379;51.034;7.006;2023-04-25T11:22:54;0.70;;;0.70;;
10661;SDS011;5379;51.034;7.006;2023-04-25T11:25:25;0.73;;;0.60;;
10661;SDS011;5379;51.034;7.006;2023-04-25T11:27:53;0.67;;;0.67;;
10661;SDS011;5379;51.034;7.006;2023-04-25T11:30:21;1.07;;;0.97;;
10661;SDS011;5379;51.034;7.006;2023-04-25T11:32:49;2.30;;;0.87;;
10661;SDS011;5379;51.034;7.006;2023-04-25T11:35:18;0.67;;;0.67;;
10661;SDS011;5379;51.034;7.006;2023-04-25T11:37:48;0.70;;;0.70;;
10661;SDS011;5379;51.034;7.006;2023-04-25T11:40:17;0.70;;;0.70;;
10661;SDS011;5379;51.034;7.006;2023-04-25T11:42:44;1.70;;;0.57;;
10661;SDS011;5379;51.034;7.006;2023-04-25T11:45:13;1.30;;;1.20;;
10661;SDS011;5379;51.034;7.006;2023-04-25T11:47:40;0.83;;;0.83;;
10661;SDS011;5379;51.034;7.006;2023-04-25T11:50:08;0.77;;;0.77;;
10661;SDS011;5379;51.034;7.006;2023-04-25T11:52:38;0.80;;;0.40;;
10661;SDS011;5379;51.034;7.006;2023-04-25T11:55:06;0.40;;;0.40;;
10661;SDS011;5379;51.034;7.006;2023-04-25T11:57:34;0.10;;;0.10;;
10661;SDS011;5379;51.034;7.006;2023-04-25T12:00:05;0.33;;;0.33;;
10661;SDS011;5379;51.034;7.006;2023-04-25T12:02:37;0.60;;;0.53;;
10661;SDS011;5379;51.034;7.006;2023-04-25T12:05:06;0.30;;;0.30;;
10661;SDS011;5379;51.034;7.006;2023-04-25T12:07:34;0.43;;;0.43;;
10661;SDS011;5379;51.034;7.006;2023-04-25T12:10:07;0.67;;;0.47;;
10661;SDS011;5379;51.034;7.006;2023-04-25T12:12:36;0.03;;;0.03;;
10661;SDS011;5379;51.034;7.006;2023-04-25T12:15:10;0.50;;;0.50;;
10661;SDS011;5379;51.034;7.006;2023-04-25T12:17:40;0.60;;;0.60;;
10661;SDS011;5379;51.034;7.006;2023-04-25T12:20:09;0.60;;;0.60;;
10661;SDS011;5379;51.034;7.006;2023-04-25T12:22:40;0.50;;;0.50;;
10661;SDS011;5379;51.034;7.006;2023-04-25T12:25:11;0.43;;;0.43;;
10661;SDS011;5379;51.034;7.006;2023-04-25T12:27:39;2.40;;;1.03;;
10661;SDS011;5379;51.034;7.006;2023-04-25T12:30:07;0.40;;;0.40;;
10661;SDS011;5379;51.034;7.006;2023-04-25T12:32:35;0.70;;;0.70;;
10661;SDS011;5379;51.034;7.006;2023-04-25T12:35:02;1.13;;;0.90;;
10661;SDS011;5379;51.034;7.006;2023-04-25T12:37:30;0.73;;;0.73;;
10661;SDS011;5379;51.034;7.006;2023-04-25T12:39:57;1.87;;;1.03;;
10661;SDS011;5379;51.034;7.006;2023-04-25T12:42:25;0.40;;;0.40;;
10661;SDS011;5379;51.034;7.006;2023-04-25T12:44:52;0.40;;;0.40;;
10661;SDS011;5379;51.034;7.006;2023-04-25T12:47:19;0.93;;;0.93;;
10661;SDS011;5379;51.034;7.006;2023-04-25T12:49:46;0.57;;;0.57;;
10661;SDS011;5379;51.034;7.006;2023-04-25T12:52:13;0.20;;;0.20;;
10661;SDS011;5379;51.034;7.006;2023-04-25T12:54:39;0.20;;;0.20;;
10661;SDS011;5379;51.034;7.006;2023-04-25T12:57:06;0.60;;;0.50;;
10661;SDS011;5379;51.034;7.006;2023-04-25T12:59:35;0.80;;;0.80;;
10661;SDS011;5379;51.034;7.006;2023-04-25T13:02:02;0.50;;;0.50;;
10661;SDS011;5379;51.034;7.006;2023-04-25T13:04:29;0.80;;;0.40;;
10661;SDS011;5379;51.034;7.006;2023-04-25T13:06:56;1.33;;;0.93;;
10661;SDS011;5379;51.034;7.006;2023-04-25T13:09:22;0.40;;;0.40;;
10661;SDS011;5379;51.034;7.006;2023-04-25T13:11:50;0.30;;;0.30;;
10661;SDS011;5379;51.034;7.006;2023-04-25T13:14:16;0.70;;;0.70;;
10661;SDS011;5379;51.034;7.006;2023-04-25T13:16:45;0.57;;;0.57;;
10661;SDS011;5379;51.034;7.006;2023-04-25T13:19:12;0.50;;;0.50;;
10661;SDS011;5379;51.034;7.006;2023-04-25T13:21:39;0.57;;;0.57;;
10661;SDS011;5379;51.034;7.006;2023-04-25T13:24:06;1.07;;;0.87;;
10661;SDS011;5379;51.034;7.006;2023-04-25T13:26:33;0.93;;;0.80;;
10661;SDS011;5379;51.034;7.006;2023-04-25T13:29:00;0.50;;;0.50;;
10661;SDS011;5379;51.034;7.006;2023-04-25T13:31:28;0.50;;;0.50;;
10661;SDS011;5379;51.034;7.006;2023-04-25T13:33:57;0.80;;;0.80;;
10661;SDS011;5379;51.034;7.006;2023-04-25T13:36:24;0.87;;;0.87;;
10661;SDS011;5379;51.034;7.006;2023-04-25T13:38:52;1.00;;;1.00;;
10661;SDS011;5379;51.034;7.006;2023-04-25T13:41:19;0.83;;;0.83;;
10661;SDS011;5379;51.034;7.006;2023-04-25T13:43:46;1.67;;;1.37;;
10661;SDS011;5379;51.034;7.006;2023-04-25T13:46:14;1.00;;;1.00;;
10661;SDS011;5379;51.034;7.006;2023-04-25T13:48:41;0.90;;;0.90;;
10661;SDS011;5379;51.034;7.006;2023-04-25T13:51:14;1.10;;;1.10;;
10661;SDS011;5379;51.034;7.006;2023-04-25T13:53:42;1.07;;;1.07;;
10661;SDS011;5379;51.034;7.006;2023-04-25T13:56:10;0.90;;;0.90;;
10661;SDS011;5379;51.034;7.006;2023-04-25T13:58:37;0.93;;;0.93;;
10661;SDS011;5379;51.034;7.006;2023-04-25T14:01:05;1.33;;;1.03;;
10661;SDS011;5379;51.034;7.006;2023-04-25T14:03:32;1.03;;;0.93;;
10661;SDS011;5379;51.034;7.006;2023-04-25T14:06:00;1.23;;;1.00;;
10661;SDS011;5379;51.034;7.006;2023-04-25T14:08:33;1.40;;;1.10;;
10661;SDS011;5379;51.034;7.006;2023-04-25T14:11:10;0.87;;;0.87;;
10661;SDS011;5379;51.034;7.006;2023-04-25T14:13:57;1.10;;;0.90;;
10661;SDS011;5379;51.034;7.006;2023-04-25T14:16:25;2.90;;;0.70;;
10661;SDS011;5379;51.034;7.006;2023-04-25T14:19:02;3.50;;;0.97;;
10661;SDS011;5379;51.034;7.006;2023-04-25T14:21:30;0.40;;;0.40;;
10661;SDS011;5379;51.034;7.006;2023-04-25T14:51:40;0.40;;;0.40;;
10661;SDS011;5379;51.034;7.006;2023-04-25T14:54:07;0.47;;;0.47;;
10661;SDS011;5379;51.034;7.006;2023-04-25T14:56:33;0.50;;;0.50;;
10661;SDS011;5379;51.034;7.006;2023-04-25T14:59:01;0.63;;;0.63;;
10661;SDS011;5379;51.034;7.006;2023-04-25T15:01:28;0.50;;;0.50;;
10661;SDS011;5379;51.034;7.006;2023-04-25T15:03:55;0.50;;;0.50;;
10661;SDS011;5379;51.034;7.006;2023-04-25T15:06:22;0.77;;;0.77;;
10661;SDS011;5379;51.034;7.006;2023-04-25T15:08:52;0.50;;;0.50;;
10661;SDS011;5379;51.034;7.006;2023-04-25T15:11:19;0.60;;;0.50;;
10661;SDS011;5379;51.034;7.006;2023-04-25T15:13:47;0.33;;;0.33;;
10661;SDS011;5379;51.034;7.006;2023-04-25T15:16:14;0.47;;;0.43;;
10661;SDS011;5379;51.034;7.006;2023-04-25T15:18:41;1.37;;;0.87;;
10661;SDS011;5379;51.034;7.006;2023-04-25T15:21:07;0.60;;;0.60;;
10661;SDS011;5379;51.034;7.006;2023-04-25T15:23:34;0.47;;;0.47;;
10661;SDS011;5379;51.034;7.006;2023-04-25T15:26:03;1.60;;;1.00;;
10661;SDS011;5379;51.034;7.006;2023-04-25T15:28:30;0.47;;;0.47;;
10661;SDS011;5379;51.034;7.006;2023-04-25T15:30:58;1.60;;;0.77;;
10661;SDS011;5379;51.034;7.006;2023-04-25T15:33:25;0.50;;;0.50;;
10661;SDS011;5379;51.034;7.006;2023-04-25T15:35:52;0.60;;;0.60;;
10661;SDS011;5379;51.034;7.006;2023-04-25T15:38:19;0.67;;;0.67;;
10661;SDS011;5379;51.034;7.006;2023-04-25T15:40:46;0.33;;;0.33;;
10661;SDS011;5379;51.034;7.006;2023-04-25T15:43:14;0.40;;;0.40;;
10661;SDS011;5379;51.034;7.006;2023-04-25T15:45:41;0.50;;;0.40;;
10661;SDS011;5379;51.034;7.006;2023-04-25T15:48:09;1.10;;;1.10;;
10661;SDS011;5379;51.034;7.006;2023-04-25T15:50:36;0.43;;;0.43;;
10661;SDS011;5379;51.034;7.006;2023-04-25T15:53:03;0.60;;;0.60;;
10661;SDS011;5379;51.034;7.006;2023-04-25T15:55:31;0.43;;;0.40;;
10661;SDS011;5379;51.034;7.006;2023-04-25T15:57:58;0.60;;;0.43;;
10661;SDS011;5379;51.034;7.006;2023-04-25T16:00:38;0.60;;;0.60;;
10661;SDS011;5379;51.034;7.006;2023-04-25T16:03:31;0.40;;;0.40;;
10661;SDS011;5379;51.034;7.006;2023-04-25T16:05:58;0.67;;;0.67;;
10661;SDS011;5379;51.034;7.006;2023-04-25T16:08:25;0.33;;;0.33;;
10661;SDS011;5379;51.034;7.006;2023-04-25T16:10:54;0.50;;;0.50;;
10661;SDS011;5379;51.034;7.006;2023-04-25T16:13:22;0.53;;;0.53;;
10661;SDS011;5379;51.034;7.006;2023-04-25T16:15:52;0.27;;;0.27;;
10661;SDS011;5379;51.034;7.006;2023-04-25T16:18:19;0.40;;;0.40;;
10661;SDS011;5379;51.034;7.006;2023-04-25T16:20:45;0.70;;;0.70;;
10661;SDS011;5379;51.034;7.006;2023-04-25T16:23:12;0.33;;;0.33;;
10661;SDS011;5379;51.034;7.006;2023-04-25T16:25:39;0.50;;;0.50;;
10661;SDS011;5379;51.034;7.006;2023-04-25T16:28:07;0.27;;;0.27;;
10661;SDS011;5379;51.034;7.006;2023-04-25T16:30:34;0.60;;;0.47;;
10661;SDS011;5379;51.034;7.006;2023-04-25T16:33:02;0.57;;;0.40;;
10661;SDS011;5379;51.034;7.006;2023-04-25T16:35:29;0.70;;;0.70;;
10661;SDS011;5379;51.034;7.006;2023-04-25T16:37:56;0.50;;;0.50;;
10661;SDS011;5379;51.034;7.006;2023-04-25T16:40:23;0.30;;;0.30;;
10661;SDS011;5379;51.034;7.006;2023-04-25T16:42:50;0.40;;;0.40;;
10661;SDS011;5379;51.034;7.006;2023-04-25T16:45:17;0.33;;;0.33;;
10661;SDS011;5379;51.034;7.006;2023-04-25T16:47:44;0.27;;;0.27;;
10661;SDS011;5379;51.034;7.006;2023-04-25T16:50:13;0.03;;;0.03;;
10661;SDS011;5379;51.034;7.006;2023-04-25T16:52:40;0.27;;;0.27;;
10661;SDS011;5379;51.034;7.006;2023-04-25T16:55:08;0.30;;;0.30;;
10661;SDS011;5379;51.034;7.006;2023-04-25T16:57:35;1.10;;;0.60;;
10661;SDS011;5379;51.034;7.006;2023-04-25T17:00:02;2.90;;;0.50;;
10661;SDS011;5379;51.034;7.006;2023-04-25T17:02:30;0.57;;;0.57;;
10661;SDS011;5379;51.034;7.006;2023-04-25T17:04:57;0.17;;;0.17;;
10661;SDS011;5379;51.034;7.006;2023-04-25T17:07:25;0.40;;;0.40;;
10661;SDS011;5379;51.034;7.006;2023-04-25T17:09:52;0.20;;;0.20;;
10661;SDS011;5379;51.034;7.006;2023-04-25T17:12:19;0.40;;;0.40;;
10661;SDS011;5379;51.034;7.006;2023-04-25T17:14:47;0.70;;;0.70;;
10661;SDS011;5379;51.034;7.006;2023-04-25T17:17:14;0.90;;;0.90;;
10661;SDS011;5379;51.034;7.006;2023-04-25T17:19:42;0.70;;;0.70;;
10661;SDS011;5379;51.034;7.006;2023-04-25T17:22:09;2.53;;;0.70;;
10661;SDS011;5379;51.034;7.006;2023-04-25T17:24:38;1.17;;;0.70;;
10661;SDS011;5379;51.034;7.006;2023-04-25T17:27:05;0.43;;;0.37;;
10661;SDS011;5379;51.034;7.006;2023-04-25T17:29:32;0.70;;;0.70;;
10661;SDS011;5379;51.034;7.006;2023-04-25T17:31:59;0.40;;;0.40;;
10661;SDS011;5379;51.034;7.006;2023-04-25T17:34:26;0.30;;;0.30;;
10661;SDS011;5379;51.034;7.006;2023-04-25T17:36:55;0.50;;;0.50;;
10661;SDS011;5379;51.034;7.006;2023-04-25T17:39:22;0.47;;;0.47;;
10661;SDS011;5379;51.034;7.006;2023-04-25T17:41:51;0.40;;;0.40;;
10661;SDS011;5379;51.034;7.006;2023-04-25T17:44:17;0.60;;;0.60;;
10661;SDS011;5379;51.034;7.006;2023-04-25T17:46:45;0.20;;;0.20;;
10661;SDS011;5379;51.034;7.006;2023-04-25T17:49:12;0.50;;;0.50;;
10661;SDS011;5379;51.034;7.006;2023-04-25T17:51:39;1.23;;;0.70;;
10661;SDS011;5379;51.034;7.006;2023-04-25T17:54:05;0.60;;;0.60;;
10661;SDS011;5379;51.034;7.006;2023-04-25T17:56:34;0.23;;;0.23;;
10661;SDS011;5379;51.034;7.006;2023-04-25T17:59:03;0.10;;;0.10;;
10661;SDS011;5379;51.034;7.006;2023-04-25T18:01:31;0.40;;;0.40;;
10661;SDS011;5379;51.034;7.006;2023-04-25T18:03:58;0.53;;;0.53;;
10661;SDS011;5379;51.034;7.006;2023-04-25T18:06:25;0.50;;;0.50;;
10661;SDS011;5379;51.034;7.006;2023-04-25T18:08:53;1.23;;;0.33;;
10661;SDS011;5379;51.034;7.006;2023-04-25T18:11:21;0.20;;;0.20;;
10661;SDS011;5379;51.034;7.006;2023-04-25T18:13:48;0.30;;;0.30;;
10661;SDS011;5379;51.034;7.006;2023-04-25T18:16:16;0.10;;;0.10;;
10661;SDS011;5379;51.034;7.006;2023-04-25T18:18:43;0.57;;;0.57;;
10661;SDS011;5379;51.034;7.006;2023-04-25T18:21:16;0.53;;;0.30;;
10661;SDS011;5379;51.034;7.006;2023-04-25T18:23:43;0.67;;;0.67;;
10661;SDS011;5379;51.034;7.006;2023-04-25T18:26:11;0.30;;;0.30;;
10661;SDS011;5379;51.034;7.006;2023-04-25T18:28:38;4.10;;;0.50;;
10661;SDS011;5379;51.034;7.006;2023-04-25T18:31:04;0.53;;;0.53;;
10661;SDS011;5379;51.034;7.006;2023-04-25T18:33:34;0.67;;;0.67;;
10661;SDS011;5379;51.034;7.006;2023-04-25T18:36:01;6.37;;;1.17;;
10661;SDS011;5379;51.034;7.006;2023-04-25T18:38:28;0.77;;;0.77;;
10661;SDS011;5379;51.034;7.006;2023-04-25T18:40:55;0.50;;;0.50;;
10661;SDS011;5379;51.034;7.006;2023-04-25T18:43:22;0.60;;;0.60;;
10661;SDS011;5379;51.034;7.006;2023-04-25T18:45:49;1.30;;;0.80;;
10661;SDS011;5379;51.034;7.006;2023-04-25T18:48:16;1.10;;;0.80;;
10661;SDS011;5379;51.034;7.006;2023-04-25T18:50:44;0.80;;;0.80;;
10661;SDS011;5379;51.034;7.006;2023-04-25T18:53:11;0.70;;;0.70;;
10661;SDS011;5379;51.034;7.006;2023-04-25T18:55:38;0.70;;;0.70;;
10661;SDS011;5379;51.034;7.006;2023-04-25T18:58:06;2.10;;;1.30;;
10661;SDS011;5379;51.034;7.006;2023-04-25T19:00:33;0.47;;;0.47;;
10661;SDS011;5379;51.034;7.006;2023-04-25T19:03:00;0.93;;;0.67;;
10661;SDS011;5379;51.034;7.006;2023-04-25T19:05:28;0.87;;;0.87;;
10661;SDS011;5379;51.034;7.006;2023-04-25T19:07:57;1.00;;;1.00;;
10661;SDS011;5379;51.034;7.006;2023-04-25T19:10:24;0.50;;;0.50;;
10661;SDS011;5379;51.034;7.006;2023-04-25T19:12:52;0.80;;;0.80;;
10661;SDS011;5379;51.034;7.006;2023-04-25T19:15:20;0.60;;;0.60;;
10661;SDS011;5379;51.034;7.006;2023-04-25T19:17:47;1.03;;;1.03;;
10661;SDS011;5379;51.034;7.006;2023-04-25T19:20:15;1.07;;;1.03;;
10661;SDS011;5379;51.034;7.006;2023-04-25T19:22:44;1.17;;;0.80;;
10661;SDS011;5379;51.034;7.006;2023-04-25T19:25:12;0.70;;;0.70;;
10661;SDS011;5379;51.034;7.006;2023-04-25T19:27:39;0.57;;;0.57;;
10661;SDS011;5379;51.034;7.006;2023-04-25T19:30:07;1.03;;;0.93;;
10661;SDS011;5379;51.034;7.006;2023-04-25T19:32:34;3.57;;;1.10;;
10661;SDS011;5379;51.034;7.006;2023-04-25T19:35:02;1.67;;;1.07;;
10661;SDS011;5379;51.034;7.006;2023-04-25T19:37:29;0.97;;;0.97;;
10661;SDS011;5379;51.034;7.006;2023-04-25T19:39:56;2.00;;;0.73;;
10661;SDS011;5379;51.034;7.006;2023-04-25T19:42:25;0.70;;;0.70;;
10661;SDS011;5379;51.034;7.006;2023-04-25T19:44:52;1.70;;;1.03;;
10661;SDS011;5379;51.034;7.006;2023-04-25T19:47:19;0.70;;;0.70;;
10661;SDS011;5379;51.034;7.006;2023-04-25T19:49:45;0.33;;;0.33;;
10661;SDS011;5379;51.034;7.006;2023-04-25T19:52:12;0.90;;;0.70;;
10661;SDS011;5379;51.034;7.006;2023-04-25T19:54:41;0.77;;;0.77;;
10661;SDS011;5379;51.034;7.006;2023-04-25T19:57:09;1.23;;;0.53;;
10661;SDS011;5379;51.034;7.006;2023-04-25T19:59:38;0.50;;;0.50;;
10661;SDS011;5379;51.034;7.006;2023-04-25T20:02:05;0.20;;;0.20;;
10661;SDS011;5379;51.034;7.006;2023-04-25T20:04:33;0.80;;;0.50;;
10661;SDS011;5379;51.034;7.006;2023-04-25T20:07:00;0.77;;;0.70;;